sensor_id;sensor_type;location;lat;lon;timestamp;pressure;altitude;pressure_sealevel;temperature;humidity
43312;BME280;30041;48.300;16.352;2023-02-22T00:02:05;99839.59;;;22.86;41.92
43312;BME280;30041;48.300;16.352;2023-02-22T00:04:30;99841.47;;;22.85;41.91
43312;BME280;30041;48.300;16.352;2023-02-22T00:06:56;99845.25;;;22.84;42.14
43312;BME280;30041;48.300;16.352;2023-02-22T00:09:21;99841.47;;;22.85;41.99
43312;BME280;30041;48.300;16.352;2023-02-22T00:11:47;99849.56;;;22.85;41.94
43312;BME280;30041;48.300;16.352;2023-02-22T00:14:13;99843.38;;;22.85;42.05
43312;BME280;30041;48.300;16.352;2023-02-22T00:16:38;99854.41;;;22.83;41.87
43312;BME280;30041;48.300;16.352;2023-02-22T00:19:04;99847.09;;;22.84;42.13
43312;BME280;30041;48.300;16.352;2023-02-22T00:21:29;99850.88;;;22.83;41.99
43312;BME280;30041;48.300;16.352;2023-02-22T00:23:55;99855.22;;;22.84;41.77
43312;BME280;30041;48.300;16.352;2023-02-22T00:26:21;99854.63;;;22.82;41.78
43312;BME280;30041;48.300;16.352;2023-02-22T00:28:49;99853.00;;;22.80;42.08
43312;BME280;30041;48.300;16.352;2023-02-22T00:31:15;99851.94;;;22.82;42.05
43312;BME280;30041;48.300;16.352;2023-02-22T00:33:41;99854.41;;;22.83;41.84
43312;BME280;30041;48.300;16.352;2023-02-22T00:36:08;99847.59;;;22.80;42.09
43312;BME280;30041;48.300;16.352;2023-02-22T00:38:34;99850.53;;;22.79;42.04
43312;BME280;30041;48.300;16.352;2023-02-22T00:41:00;99855.72;;;22.80;41.88
43312;BME280;30041;48.300;16.352;2023-02-22T00:43:25;99851.59;;;22.78;42.09
43312;BME280;30041;48.300;16.352;2023-02-22T00:45:51;99855.13;;;22.78;41.81
43312;BME280;30041;48.300;16.352;2023-02-22T00:48:16;99842.69;;;22.77;41.86
43312;BME280;30041;48.300;16.352;2023-02-22T00:50:42;99842.44;;;22.79;42.13
43312;BME280;30041;48.300;16.352;2023-02-22T00:53:08;99844.31;;;22.78;41.99
43312;BME280;30041;48.300;16.352;2023-02-22T00:55:36;99847.59;;;22.80;41.92
43312;BME280;30041;48.300;16.352;2023-02-22T00:58:03;99843.50;;;22.78;41.95
43312;BME280;30041;48.300;16.352;2023-02-22T01:00:33;99843.75;;;22.76;42.04
43312;BME280;30041;48.300;16.352;2023-02-22T01:02:59;99848.69;;;22.79;41.80
43312;BME280;30041;48.300;16.352;2023-02-22T01:05:27;99844.56;;;22.77;41.63
43312;BME280;30041;48.300;16.352;2023-02-22T01:07:54;99839.16;;;22.77;41.91
43312;BME280;30041;48.300;16.352;2023-02-22T01:10:22;99841.84;;;22.77;41.96
43312;BME280;30041;48.300;16.352;2023-02-22T01:12:49;99840.81;;;22.78;42.01
43312;BME280;30041;48.300;16.352;2023-02-22T01:15:18;99838.56;;;22.75;41.88
43312;BME280;30041;48.300;16.352;2023-02-22T01:17:44;99839.41;;;22.75;41.84
43312;BME280;30041;48.300;16.352;2023-02-22T01:20:10;99839.41;;;22.75;41.94
43312;BME280;30041;48.300;16.352;2023-02-22T01:22:35;99842.91;;;22.76;42.08
43312;BME280;30041;48.300;16.352;2023-02-22T01:25:01;99840.22;;;22.76;42.02
43312;BME280;30041;48.300;16.352;2023-02-22T01:27:27;99839.63;;;22.74;41.97
43312;BME280;30041;48.300;16.352;2023-02-22T01:29:53;99839.63;;;22.74;41.97
43312;BME280;30041;48.300;16.352;2023-02-22T01:32:18;99832.59;;;22.73;41.91
43312;BME280;30041;48.300;16.352;2023-02-22T01:34:43;99828.00;;;22.73;41.96
43312;BME280;30041;48.300;16.352;2023-02-22T01:37:09;99830.72;;;22.73;41.97
43312;BME280;30041;48.300;16.352;2023-02-22T01:39:34;99834.47;;;22.72;42.03
43312;BME280;30041;48.300;16.352;2023-02-22T01:42:00;99824.50;;;22.73;41.84
43312;BME280;30041;48.300;16.352;2023-02-22T01:44:31;99823.66;;;22.72;41.93
43312;BME280;30041;48.300;16.352;2023-02-22T01:46:59;99820.16;;;22.72;41.76
43312;BME280;30041;48.300;16.352;2023-02-22T01:49:29;99822.63;;;22.73;41.78
43312;BME280;30041;48.300;16.352;2023-02-22T01:51:57;99817.22;;;22.73;41.58
43312;BME280;30041;48.300;16.352;2023-02-22T01:54:34;99822.84;;;22.72;41.65
43312;BME280;30041;48.300;16.352;2023-02-22T01:57:20;99822.25;;;22.70;42.06
43312;BME280;30041;48.300;16.352;2023-02-22T01:59:50;99827.66;;;22.70;41.70
43312;BME280;30041;48.300;16.352;2023-02-22T02:02:18;99823.91;;;22.71;41.81
43312;BME280;30041;48.300;16.352;2023-02-22T02:04:44;99822.25;;;22.70;42.06
43312;BME280;30041;48.300;16.352;2023-02-22T02:07:12;99815.25;;;22.69;41.76
43312;BME280;30041;48.300;16.352;2023-02-22T02:09:58;99823.34;;;22.69;41.80
43312;BME280;30041;48.300;16.352;2023-02-22T02:12:24;99818.75;;;22.69;41.87
43312;BME280;30041;48.300;16.352;2023-02-22T02:14:52;99819.56;;;22.70;41.58
43312;BME280;30041;48.300;16.352;2023-02-22T02:17:20;99822.25;;;22.70;41.63
43312;BME280;30041;48.300;16.352;2023-02-22T02:30:57;99811.94;;;22.67;41.54
43312;BME280;30041;48.300;16.352;2023-02-22T02:33:31;99806.56;;;22.67;41.88
43312;BME280;30041;48.300;16.352;2023-02-22T02:39:10;99809.72;;;22.64;41.99
43312;BME280;30041;48.300;16.352;2023-02-22T02:41:43;99818.16;;;22.67;41.87
43312;BME280;30041;48.300;16.352;2023-02-22T02:44:19;99816.53;;;22.66;41.72
43312;BME280;30041;48.300;16.352;2023-02-22T02:47:04;99808.66;;;22.65;41.69
43312;BME280;30041;48.300;16.352;2023-02-22T02:50:03;99799.97;;;22.63;41.63
43312;BME280;30041;48.300;16.352;2023-02-22T02:52:32;99804.66;;;22.67;41.56
43312;BME280;30041;48.300;16.352;2023-02-22T02:55:00;99805.72;;;22.66;41.83
43312;BME280;30041;48.300;16.352;2023-02-22T02:57:27;99795.75;;;22.67;41.70
43312;BME280;30041;48.300;16.352;2023-02-22T02:59:52;99800.34;;;22.66;41.82
43312;BME280;30041;48.300;16.352;2023-02-22T03:05:14;99793.28;;;22.65;41.66
43312;BME280;30041;48.300;16.352;2023-02-22T03:11:04;99795.41;;;22.63;41.72
43312;BME280;30041;48.300;16.352;2023-02-22T03:13:49;99798.31;;;22.62;41.54
43312;BME280;30041;48.300;16.352;2023-02-22T03:19:35;99805.63;;;22.61;41.75
43312;BME280;30041;48.300;16.352;2023-02-22T03:22:11;99808.31;;;22.61;41.84
43312;BME280;30041;48.300;16.352;2023-02-22T03:27:19;99813.72;;;22.61;41.54
43312;BME280;30041;48.300;16.352;2023-02-22T03:29:50;99812.91;;;22.61;41.35
43312;BME280;30041;48.300;16.352;2023-02-22T03:32:22;99819.38;;;22.59;41.59
43312;BME280;30041;48.300;16.352;2023-02-22T03:34:57;99805.03;;;22.59;41.79
43312;BME280;30041;48.300;16.352;2023-02-22T03:37:28;99816.69;;;22.59;41.69
43312;BME280;30041;48.300;16.352;2023-02-22T03:39:57;99812.91;;;22.61;41.57
43312;BME280;30041;48.300;16.352;2023-02-22T03:42:28;99815.59;;;22.61;41.50
43312;BME280;30041;48.300;16.352;2023-02-22T03:44:59;99812.09;;;22.60;41.75
43312;BME280;30041;48.300;16.352;2023-02-22T03:47:36;99813.13;;;22.59;41.71
43312;BME280;30041;48.300;16.352;2023-02-22T03:52:54;99819.38;;;22.59;41.51
43312;BME280;30041;48.300;16.352;2023-02-22T03:55:19;99819.63;;;22.58;41.52
43312;BME280;30041;48.300;16.352;2023-02-22T03:57:48;99826.91;;;22.57;41.75
43312;BME280;30041;48.300;16.352;2023-02-22T04:00:21;99822.31;;;22.58;41.59
43312;BME280;30041;48.300;16.352;2023-02-22T04:02:47;99824.22;;;22.57;41.53
43312;BME280;30041;48.300;16.352;2023-02-22T04:05:13;99818.22;;;22.55;41.52
43312;BME280;30041;48.300;16.352;2023-02-22T04:07:40;99813.88;;;22.54;41.59
43312;BME280;30041;48.300;16.352;2023-02-22T04:10:06;99820.34;;;22.53;41.90
43312;BME280;30041;48.300;16.352;2023-02-22T04:12:32;99811.16;;;22.54;41.69
43312;BME280;30041;48.300;16.352;2023-02-22T04:14:57;99811.41;;;22.53;41.71
43312;BME280;30041;48.300;16.352;2023-02-22T04:17:23;99795.78;;;22.55;41.59
43312;BME280;30041;48.300;16.352;2023-02-22T04:19:48;99804.94;;;22.54;41.79
43312;BME280;30041;48.300;16.352;2023-02-22T04:22:14;99797.06;;;22.52;41.59
43312;BME280;30041;48.300;16.352;2023-02-22T04:24:39;99801.44;;;22.53;41.58
43312;BME280;30041;48.300;16.352;2023-02-22T04:27:05;99810.13;;;22.55;41.46
43312;BME280;30041;48.300;16.352;2023-02-22T04:29:30;99808.47;;;22.54;41.69
43312;BME280;30041;48.300;16.352;2023-02-22T04:31:56;99805.75;;;22.54;41.69
43312;BME280;30041;48.300;16.352;2023-02-22T04:34:21;99799.53;;;22.54;41.31
43312;BME280;30041;48.300;16.352;2023-02-22T04:36:47;99802.75;;;22.51;41.68
43312;BME280;30041;48.300;16.352;2023-02-22T04:39:12;99800.84;;;22.51;41.75
43312;BME280;30041;48.300;16.352;2023-02-22T04:41:38;99812.25;;;22.53;41.52
43312;BME280;30041;48.300;16.352;2023-02-22T04:44:03;99802.25;;;22.54;41.50
43312;BME280;30041;48.300;16.352;2023-02-22T04:46:29;99799.31;;;22.55;41.44
43312;BME280;30041;48.300;16.352;2023-02-22T04:48:54;99800.34;;;22.54;41.45
43312;BME280;30041;48.300;16.352;2023-02-22T04:51:20;99803.31;;;22.53;41.82
43312;BME280;30041;48.300;16.352;2023-02-22T04:53:46;99808.13;;;22.51;41.94
43312;BME280;30041;48.300;16.352;2023-02-22T04:56:11;99809.38;;;22.08;42.69
43312;BME280;30041;48.300;16.352;2023-02-22T04:58:37;99810.22;;;22.08;43.03
43312;BME280;30041;48.300;16.352;2023-02-22T05:01:02;99801.84;;;22.10;43.36
43312;BME280;30041;48.300;16.352;2023-02-22T05:03:28;99799.41;;;22.08;43.39
43312;BME280;30041;48.300;16.352;2023-02-22T05:05:53;99806.09;;;22.06;43.98
43312;BME280;30041;48.300;16.352;2023-02-22T05:08:19;99807.38;;;22.03;44.08
43312;BME280;30041;48.300;16.352;2023-02-22T05:10:45;99805.75;;;22.02;43.98
43312;BME280;30041;48.300;16.352;2023-02-22T05:13:10;99809.50;;;22.01;44.08
43312;BME280;30041;48.300;16.352;2023-02-22T05:15:36;99804.09;;;22.01;43.87
43312;BME280;30041;48.300;16.352;2023-02-22T05:18:01;99799.41;;;21.96;44.12
43312;BME280;30041;48.300;16.352;2023-02-22T05:20:32;99800.81;;;21.99;43.77
43312;BME280;30041;48.300;16.352;2023-02-22T05:23:00;99801.88;;;21.98;43.91
43312;BME280;30041;48.300;16.352;2023-02-22T05:25:26;99802.00;;;21.91;44.28
43312;BME280;30041;48.300;16.352;2023-02-22T05:27:54;99794.84;;;21.85;44.34
43312;BME280;30041;48.300;16.352;2023-02-22T05:30:22;99798.50;;;21.91;44.13
43312;BME280;30041;48.300;16.352;2023-02-22T05:32:49;99798.25;;;21.92;43.96
43312;BME280;30041;48.300;16.352;2023-02-22T05:35:15;99804.47;;;21.93;44.34
43312;BME280;30041;48.300;16.352;2023-02-22T05:37:41;99801.78;;;21.93;44.31
43312;BME280;30041;48.300;16.352;2023-02-22T05:40:07;99802.38;;;21.95;44.08
43312;BME280;30041;48.300;16.352;2023-02-22T05:42:32;99805.66;;;21.97;43.99
43312;BME280;30041;48.300;16.352;2023-02-22T05:44:58;99804.00;;;21.96;44.13
43312;BME280;30041;48.300;16.352;2023-02-22T05:47:23;99806.91;;;21.94;44.20
43312;BME280;30041;48.300;16.352;2023-02-22T05:49:49;99808.34;;;21.97;43.93
43312;BME280;30041;48.300;16.352;2023-02-22T05:52:14;99800.72;;;21.94;43.19
43312;BME280;30041;48.300;16.352;2023-02-22T05:54:40;99812.69;;;21.98;43.03
43312;BME280;30041;48.300;16.352;2023-02-22T05:57:05;99809.03;;;22.04;42.92
43312;BME280;30041;48.300;16.352;2023-02-22T05:59:31;99810.66;;;22.05;43.12
43312;BME280;30041;48.300;16.352;2023-02-22T06:01:56;99803.16;;;22.07;42.92
43312;BME280;30041;48.300;16.352;2023-02-22T06:04:22;99810.22;;;22.08;43.11
43312;BME280;30041;48.300;16.352;2023-02-22T06:06:47;99804.81;;;22.08;43.02
43312;BME280;30041;48.300;16.352;2023-02-22T06:09:13;99807.84;;;22.12;43.47
43312;BME280;30041;48.300;16.352;2023-02-22T06:11:38;99808.47;;;22.02;43.95
43312;BME280;30041;48.300;16.352;2023-02-22T06:14:04;99813.97;;;21.95;44.25
43312;BME280;30041;48.300;16.352;2023-02-22T06:16:29;99822.28;;;21.94;44.30
43312;BME280;30041;48.300;16.352;2023-02-22T06:18:55;99819.00;;;21.92;44.31
43312;BME280;30041;48.300;16.352;2023-02-22T06:21:21;99826.78;;;21.88;44.47
43312;BME280;30041;48.300;16.352;2023-02-22T06:23:46;99822.06;;;21.95;44.19
43312;BME280;30041;48.300;16.352;2023-02-22T06:26:15;99823.97;;;21.95;44.36
43312;BME280;30041;48.300;16.352;2023-02-22T06:28:40;99822.06;;;21.95;44.29
43312;BME280;30041;48.300;16.352;2023-02-22T06:31:06;99816.44;;;21.97;44.31
43312;BME280;30041;48.300;16.352;2023-02-22T06:33:32;99818.56;;;21.95;44.29
43312;BME280;30041;48.300;16.352;2023-02-22T06:35:57;99817.97;;;21.93;44.38
43312;BME280;30041;48.300;16.352;2023-02-22T06:38:24;99819.59;;;21.94;44.37
43312;BME280;30041;48.300;16.352;2023-02-22T06:40:50;99818.78;;;21.93;44.20
43312;BME280;30041;48.300;16.352;2023-02-22T06:43:15;99824.53;;;21.97;44.18
43312;BME280;30041;48.300;16.352;2023-02-22T06:45:41;99827.59;;;21.89;44.24
43312;BME280;30041;48.300;16.352;2023-02-22T06:48:06;99831.00;;;21.84;43.93
43312;BME280;30041;48.300;16.352;2023-02-22T06:50:32;99828.06;;;21.86;43.69
43312;BME280;30041;48.300;16.352;2023-02-22T06:52:57;99824.06;;;21.88;43.85
43312;BME280;30041;48.300;16.352;2023-02-22T06:55:26;99828.41;;;21.89;43.87
43312;BME280;30041;48.300;16.352;2023-02-22T06:57:52;99828.63;;;21.88;44.21
43312;BME280;30041;48.300;16.352;2023-02-22T07:00:20;99832.41;;;21.87;44.40
43312;BME280;30041;48.300;16.352;2023-02-22T07:02:47;99828.63;;;21.88;44.09
43312;BME280;30041;48.300;16.352;2023-02-22T07:05:13;99836.50;;;21.89;44.18
43312;BME280;30041;48.300;16.352;2023-02-22T07:07:39;99838.38;;;21.89;44.24
43312;BME280;30041;48.300;16.352;2023-02-22T07:10:07;99831.31;;;21.88;44.31
43312;BME280;30041;48.300;16.352;2023-02-22T07:12:33;99836.16;;;21.86;44.44
43312;BME280;30041;48.300;16.352;2023-02-22T07:14:59;99830.78;;;21.86;44.40
43312;BME280;30041;48.300;16.352;2023-02-22T07:17:25;99839.69;;;21.86;44.52
43312;BME280;30041;48.300;16.352;2023-02-22T07:19:50;99832.41;;;21.87;44.37
43312;BME280;30041;48.300;16.352;2023-02-22T07:22:16;99825.13;;;21.87;44.38
43312;BME280;30041;48.300;16.352;2023-02-22T07:24:42;99827.81;;;21.87;44.45
43312;BME280;30041;48.300;16.352;2023-02-22T07:27:08;99818.78;;;21.93;44.21
43312;BME280;30041;48.300;16.352;2023-02-22T07:29:33;99828.75;;;21.93;43.94
43312;BME280;30041;48.300;16.352;2023-02-22T07:31:59;99826.06;;;21.93;44.44
43312;BME280;30041;48.300;16.352;2023-02-22T07:34:24;99819.00;;;21.92;44.37
43312;BME280;30041;48.300;16.352;2023-02-22T07:36:49;99826.88;;;21.93;44.17
43312;BME280;30041;48.300;16.352;2023-02-22T07:39:15;99825.00;;;21.94;44.17
43312;BME280;30041;48.300;16.352;2023-02-22T07:41:40;99820.41;;;21.94;44.53
43312;BME280;30041;48.300;16.352;2023-02-22T07:44:06;99820.66;;;21.93;44.78
43312;BME280;30041;48.300;16.352;2023-02-22T07:46:32;99816.31;;;21.92;44.75
43312;BME280;30041;48.300;16.352;2023-02-22T07:48:57;99820.66;;;21.93;44.82
43312;BME280;30041;48.300;16.352;2023-02-22T07:51:23;99822.88;;;21.96;45.04
43312;BME280;30041;48.300;16.352;2023-02-22T07:53:48;99812.91;;;21.96;44.74
43312;BME280;30041;48.300;16.352;2023-02-22T07:56:14;99818.31;;;21.96;44.95
43312;BME280;30041;48.300;16.352;2023-02-22T07:58:39;99815.38;;;21.98;45.16
43312;BME280;30041;48.300;16.352;2023-02-22T08:01:05;99812.09;;;21.96;45.16
43312;BME280;30041;48.300;16.352;2023-02-22T08:03:32;99816.69;;;21.95;45.37
43312;BME280;30041;48.300;16.352;2023-02-22T08:05:58;99817.50;;;21.96;45.33
43312;BME280;30041;48.300;16.352;2023-02-22T08:08:23;99814.78;;;21.96;45.59
43312;BME280;30041;48.300;16.352;2023-02-22T08:10:50;99819.38;;;21.95;45.94
43312;BME280;30041;48.300;16.352;2023-02-22T08:13:17;99819.16;;;21.97;45.77
43312;BME280;30041;48.300;16.352;2023-02-22T08:15:42;99823.97;;;21.95;45.93
43312;BME280;30041;48.300;16.352;2023-02-22T08:18:14;99823.38;;;21.93;45.93
43312;BME280;30041;48.300;16.352;2023-02-22T08:20:42;99811.03;;;21.85;45.39
43312;BME280;30041;48.300;16.352;2023-02-22T08:23:10;99814.91;;;21.89;44.58
43312;BME280;30041;48.300;16.352;2023-02-22T08:25:36;99812.56;;;21.93;44.96
43312;BME280;30041;48.300;16.352;2023-02-22T08:28:07;99814.19;;;21.94;45.51
43312;BME280;30041;48.300;16.352;2023-02-22T08:30:35;99816.31;;;21.92;46.05
43312;BME280;30041;48.300;16.352;2023-02-22T08:33:02;99816.69;;;21.95;45.84
43312;BME280;30041;48.300;16.352;2023-02-22T08:35:29;99821.25;;;21.95;45.55
43312;BME280;30041;48.300;16.352;2023-02-22T08:37:58;99817.50;;;21.96;45.53
43312;BME280;30041;48.300;16.352;2023-02-22T08:40:26;99818.88;;;21.98;45.59
43312;BME280;30041;48.300;16.352;2023-02-22T08:42:52;99811.06;;;21.97;46.08
43312;BME280;30041;48.300;16.352;2023-02-22T08:45:18;99821.84;;;21.97;46.12
43312;BME280;30041;48.300;16.352;2023-02-22T08:47:45;99823.69;;;21.96;46.18
43312;BME280;30041;48.300;16.352;2023-02-22T08:50:22;99826.66;;;21.95;46.02
43312;BME280;30041;48.300;16.352;2023-02-22T08:52:54;99826.66;;;21.95;46.34
43312;BME280;30041;48.300;16.352;2023-02-22T08:55:22;99824.19;;;21.93;45.48
43312;BME280;30041;48.300;16.352;2023-02-22T08:57:48;99830.41;;;21.94;45.65
43312;BME280;30041;48.300;16.352;2023-02-22T09:00:14;99830.41;;;21.94;45.76
43312;BME280;30041;48.300;16.352;2023-02-22T09:02:40;99830.97;;;21.96;46.33
43312;BME280;30041;48.300;16.352;2023-02-22T09:05:06;99823.97;;;21.95;46.55
43312;BME280;30041;48.300;16.352;2023-02-22T09:07:32;99831.22;;;21.94;46.52
43312;BME280;30041;48.300;16.352;2023-02-22T09:09:57;99829.34;;;21.95;46.58
43312;BME280;30041;48.300;16.352;2023-02-22T09:12:23;99828.63;;;21.88;46.44
43312;BME280;30041;48.300;16.352;2023-02-22T09:14:48;99831.09;;;21.89;46.37
43312;BME280;30041;48.300;16.352;2023-02-22T09:17:14;99833.56;;;21.91;46.33
43312;BME280;30041;48.300;16.352;2023-02-22T09:19:40;99829.22;;;21.90;46.27
43312;BME280;30041;48.300;16.352;2023-02-22T09:22:05;99823.09;;;21.94;46.37
43312;BME280;30041;48.300;16.352;2023-02-22T09:24:31;99827.47;;;21.95;47.48
43312;BME280;30041;48.300;16.352;2023-02-22T09:26:57;99822.91;;;21.84;45.99
43312;BME280;30041;48.300;16.352;2023-02-22T09:29:25;99824.91;;;21.89;44.08
43312;BME280;30041;48.300;16.352;2023-02-22T09:31:53;99827.34;;;21.79;43.66
43312;BME280;30041;48.300;16.352;2023-02-22T09:34:20;99828.88;;;21.74;43.94
43312;BME280;30041;48.300;16.352;2023-02-22T09:36:47;99822.44;;;21.75;44.17
43312;BME280;30041;48.300;16.352;2023-02-22T09:39:14;99818.66;;;21.76;43.98
43312;BME280;30041;48.300;16.352;2023-02-22T09:41:52;99814.78;;;21.61;42.94
43312;BME280;30041;48.300;16.352;2023-02-22T09:44:28;99821.47;;;21.58;43.27
43312;BME280;30041;48.300;16.352;2023-02-22T09:46:57;99814.94;;;21.66;43.60
43312;BME280;30041;48.300;16.352;2023-02-22T09:52:01;99810.56;;;21.76;43.76
43312;BME280;30041;48.300;16.352;2023-02-22T09:54:33;99803.44;;;21.82;43.98
43312;BME280;30041;48.300;16.352;2023-02-22T09:57:03;99803.78;;;21.86;44.06
43312;BME280;30041;48.300;16.352;2023-02-22T09:59:34;99809.75;;;21.88;43.76
43312;BME280;30041;48.300;16.352;2023-02-22T10:05:05;99809.03;;;21.92;44.03
43312;BME280;30041;48.300;16.352;2023-02-22T10:07:44;99808.00;;;21.93;44.17
43312;BME280;30041;48.300;16.352;2023-02-22T10:10:17;99802.38;;;21.95;44.43
43312;BME280;30041;48.300;16.352;2023-02-22T10:13:03;99796.13;;;21.94;44.13
43312;BME280;30041;48.300;16.352;2023-02-22T10:15:31;99796.38;;;21.93;44.43
43312;BME280;30041;48.300;16.352;2023-02-22T10:18:16;99791.56;;;21.95;44.55
43312;BME280;30041;48.300;16.352;2023-02-22T10:20:56;99789.22;;;21.98;44.30
43312;BME280;30041;48.300;16.352;2023-02-22T10:23:24;99786.75;;;21.97;44.66
43312;BME280;30041;48.300;16.352;2023-02-22T10:26:18;99784.28;;;21.95;44.80
43312;BME280;30041;48.300;16.352;2023-02-22T10:28:53;99780.53;;;21.96;44.79
43312;BME280;30041;48.300;16.352;2023-02-22T10:31:29;99778.66;;;21.97;44.70
43312;BME280;30041;48.300;16.352;2023-02-22T10:34:03;99770.56;;;21.97;44.90
43312;BME280;30041;48.300;16.352;2023-02-22T10:36:29;99773.50;;;21.95;45.04
43312;BME280;30041;48.300;16.352;2023-02-22T10:41:57;99770.56;;;21.97;45.03
43312;BME280;30041;48.300;16.352;2023-02-22T10:44:23;99765.19;;;21.97;45.31
43312;BME280;30041;48.300;16.352;2023-02-22T10:46:49;99772.69;;;21.95;45.26
43312;BME280;30041;48.300;16.352;2023-02-22T10:49:19;99762.94;;;21.94;45.32
43312;BME280;30041;48.300;16.352;2023-02-22T10:52:13;99759.41;;;21.93;45.32
43312;BME280;30041;48.300;16.352;2023-02-22T10:54:45;99756.22;;;21.96;45.52
43312;BME280;30041;48.300;16.352;2023-02-22T10:57:12;99762.72;;;21.95;45.39
43312;BME280;30041;48.300;16.352;2023-02-22T10:59:40;99751.91;;;21.95;45.51
43312;BME280;30041;48.300;16.352;2023-02-22T11:04:54;99746.50;;;21.95;45.50
43312;BME280;30041;48.300;16.352;2023-02-22T11:07:29;99739.22;;;21.96;45.42
43312;BME280;30041;48.300;16.352;2023-02-22T11:10:00;99748.13;;;21.96;45.39
43312;BME280;30041;48.300;16.352;2023-02-22T11:12:35;99738.88;;;21.92;44.94
43312;BME280;30041;48.300;16.352;2023-02-22T11:17:42;99736.00;;;21.35;37.71
43312;BME280;30041;48.300;16.352;2023-02-22T11:20:30;99726.84;;;21.24;37.12
43312;BME280;30041;48.300;16.352;2023-02-22T11:22:59;99728.56;;;21.19;36.20
43312;BME280;30041;48.300;16.352;2023-02-22T11:25:30;99720.63;;;21.35;37.78
43312;BME280;30041;48.300;16.352;2023-02-22T11:28:16;99721.56;;;21.65;38.33
43312;BME280;30041;48.300;16.352;2023-02-22T11:30:48;99716.16;;;21.76;38.34
43312;BME280;30041;48.300;16.352;2023-02-22T11:35:55;99714.75;;;21.86;38.94
43312;BME280;30041;48.300;16.352;2023-02-22T11:38:29;99707.78;;;21.90;39.28
43312;BME280;30041;48.300;16.352;2023-02-22T11:43:47;99702.03;;;21.98;39.63
43312;BME280;30041;48.300;16.352;2023-02-22T11:46:23;99704.50;;;22.00;39.85
43312;BME280;30041;48.300;16.352;2023-02-22T11:51:49;99698.84;;;22.01;40.10
43312;BME280;30041;48.300;16.352;2023-02-22T11:57:44;99697.81;;;22.02;40.32
43312;BME280;30041;48.300;16.352;2023-02-22T12:00:33;99700.28;;;22.04;40.49
43312;BME280;30041;48.300;16.352;2023-02-22T12:09:17;99689.00;;;22.07;40.69
43312;BME280;30041;48.300;16.352;2023-02-22T12:12:01;99677.97;;;22.08;40.76
43312;BME280;30041;48.300;16.352;2023-02-22T12:17:32;99677.13;;;22.08;40.83
43312;BME280;30041;48.300;16.352;2023-02-22T12:20:16;99670.44;;;22.10;41.16
43312;BME280;30041;48.300;16.352;2023-02-22T12:22:55;99681.25;;;22.10;41.17
43312;BME280;30041;48.300;16.352;2023-02-22T12:25:52;99669.03;;;22.08;41.21
43312;BME280;30041;48.300;16.352;2023-02-22T12:28:40;99670.69;;;22.09;41.21
43312;BME280;30041;48.300;16.352;2023-02-22T12:31:22;99663.16;;;22.11;41.14
43312;BME280;30041;48.300;16.352;2023-02-22T12:34:10;99666.66;;;22.11;41.37
43312;BME280;30041;48.300;16.352;2023-02-22T12:36:44;99666.66;;;22.11;41.25
43312;BME280;30041;48.300;16.352;2023-02-22T12:45:25;99655.88;;;22.11;41.46
43312;BME280;30041;48.300;16.352;2023-02-22T12:48:00;99649.16;;;22.14;41.57
43312;BME280;30041;48.300;16.352;2023-02-22T12:50:30;99647.28;;;22.14;41.43
43312;BME280;30041;48.300;16.352;2023-02-22T12:53:16;99641.88;;;22.14;41.60
43312;BME280;30041;48.300;16.352;2023-02-22T12:56:38;99644.59;;;22.14;41.39
43312;BME280;30041;48.300;16.352;2023-02-22T12:58:50;99640.84;;;22.15;41.52
43312;BME280;30041;48.300;16.352;2023-02-22T13:01:20;99641.41;;;22.17;41.46
43312;BME280;30041;48.300;16.352;2023-02-22T13:03:47;99632.75;;;22.15;41.50
43312;BME280;30041;48.300;16.352;2023-02-22T13:09:06;99627.94;;;22.17;41.57
43312;BME280;30041;48.300;16.352;2023-02-22T13:20:22;99627.66;;;22.19;41.82
43312;BME280;30041;48.300;16.352;2023-02-22T13:25:27;99625.84;;;22.08;42.08
43312;BME280;30041;48.300;16.352;2023-02-22T13:34:10;99623.69;;;21.93;42.82
43312;BME280;30041;48.300;16.352;2023-02-22T13:39:53;99616.84;;;21.73;42.80
43312;BME280;30041;48.300;16.352;2023-02-22T13:47:46;99613.19;;;21.80;42.43
43312;BME280;30041;48.300;16.352;2023-02-22T13:53:09;99610.13;;;21.76;42.22
43312;BME280;30041;48.300;16.352;2023-02-22T13:55:47;99613.91;;;21.63;42.52
43312;BME280;30041;48.300;16.352;2023-02-22T13:58:16;99602.53;;;21.61;42.56
43312;BME280;30041;48.300;16.352;2023-02-22T14:00:50;99602.53;;;21.61;42.47
43312;BME280;30041;48.300;16.352;2023-02-22T14:03:36;99603.97;;;21.52;42.47
43312;BME280;30041;48.300;16.352;2023-02-22T14:06:03;99602.13;;;21.52;42.58
43312;BME280;30041;48.300;16.352;2023-02-22T14:10:59;99589.91;;;21.50;42.64
43312;BME280;30041;48.300;16.352;2023-02-22T14:13:30;99592.28;;;21.46;42.70
43312;BME280;30041;48.300;16.352;2023-02-22T14:21:04;99592.28;;;21.46;42.85
43312;BME280;30041;48.300;16.352;2023-02-22T14:26:27;99589.25;;;21.43;42.93
43312;BME280;30041;48.300;16.352;2023-02-22T14:28:56;99585.13;;;21.40;42.81
43312;BME280;30041;48.300;16.352;2023-02-22T14:31:55;99585.13;;;21.40;42.77
43312;BME280;30041;48.300;16.352;2023-02-22T14:34:18;99590.75;;;21.39;42.85
43312;BME280;30041;48.300;16.352;2023-02-22T14:36:50;99581.59;;;21.40;42.71
43312;BME280;30041;48.300;16.352;2023-02-22T14:42:38;99574.56;;;21.39;43.17
43312;BME280;30041;48.300;16.352;2023-02-22T14:47:49;99580.34;;;21.42;43.10
43312;BME280;30041;48.300;16.352;2023-02-22T14:50:48;99576.03;;;21.41;43.34
43312;BME280;30041;48.300;16.352;2023-02-22T14:53:23;99572.25;;;21.42;43.42
43312;BME280;30041;48.300;16.352;2023-02-22T14:58:52;99581.25;;;21.36;43.30
43312;BME280;30041;48.300;16.352;2023-02-22T15:01:30;99585.97;;;21.41;43.81
43312;BME280;30041;48.300;16.352;2023-02-22T15:03:55;99587.47;;;21.36;43.65